sensor_id;sensor_type;location;lat;lon;timestamp;P1;durP1;ratioP1;P2;durP2;ratioP2
74995;SDS011;63545;51.690;5.202;2024-03-17T00:01:18;19.00;;;9.13;;
74995;SDS011;63545;51.690;5.202;2024-03-17T00:03:43;17.20;;;8.83;;
74995;SDS011;63545;51.690;5.202;2024-03-17T00:06:08;16.83;;;8.63;;
74995;SDS011;63545;51.690;5.202;2024-03-17T00:08:34;19.77;;;9.07;;
74995;SDS011;63545;51.690;5.202;2024-03-17T00:11:00;17.20;;;9.30;;
74995;SDS011;63545;51.690;5.202;2024-03-17T00:13:26;20.52;;;9.57;;
74995;SDS011;63545;51.690;5.202;2024-03-17T00:15:52;17.60;;;8.33;;
74995;SDS011;63545;51.690;5.202;2024-03-17T00:18:18;16.03;;;9.00;;
74995;SDS011;63545;51.690;5.202;2024-03-17T00:20:43;15.05;;;8.70;;
74995;SDS011;63545;51.690;5.202;2024-03-17T00:23:09;18.10;;;9.00;;
74995;SDS011;63545;51.690;5.202;2024-03-17T00:25:36;16.30;;;8.50;;
74995;SDS011;63545;51.690;5.202;2024-03-17T00:28:02;19.40;;;8.40;;
74995;SDS011;63545;51.690;5.202;2024-03-17T00:30:28;18.52;;;8.80;;
74995;SDS011;63545;51.690;5.202;2024-03-17T00:32:53;16.23;;;8.60;;
74995;SDS011;63545;51.690;5.202;2024-03-17T00:35:19;14.50;;;7.77;;
74995;SDS011;63545;51.690;5.202;2024-03-17T00:37:50;19.67;;;8.77;;
74995;SDS011;63545;51.690;5.202;2024-03-17T00:40:16;17.83;;;8.98;;
74995;SDS011;63545;51.690;5.202;2024-03-17T00:42:42;15.90;;;7.97;;
74995;SDS011;63545;51.690;5.202;2024-03-17T00:45:08;15.48;;;8.13;;
74995;SDS011;63545;51.690;5.202;2024-03-17T00:47:35;13.57;;;7.68;;
74995;SDS011;63545;51.690;5.202;2024-03-17T00:50:01;15.47;;;7.77;;
74995;SDS011;63545;51.690;5.202;2024-03-17T00:52:26;15.43;;;8.15;;
74995;SDS011;63545;51.690;5.202;2024-03-17T00:54:52;13.50;;;7.47;;
74995;SDS011;63545;51.690;5.202;2024-03-17T00:57:18;15.90;;;8.25;;
74995;SDS011;63545;51.690;5.202;2024-03-17T00:59:43;14.93;;;7.70;;
74995;SDS011;63545;51.690;5.202;2024-03-17T01:02:09;14.32;;;7.55;;
74995;SDS011;63545;51.690;5.202;2024-03-17T01:04:37;16.80;;;8.67;;
74995;SDS011;63545;51.690;5.202;2024-03-17T01:07:02;13.63;;;7.63;;
74995;SDS011;63545;51.690;5.202;2024-03-17T01:09:28;14.50;;;7.50;;
74995;SDS011;63545;51.690;5.202;2024-03-17T01:11:53;18.43;;;8.17;;
74995;SDS011;63545;51.690;5.202;2024-03-17T01:14:18;15.90;;;8.20;;
74995;SDS011;63545;51.690;5.202;2024-03-17T01:16:44;14.03;;;7.93;;
74995;SDS011;63545;51.690;5.202;2024-03-17T01:19:09;18.10;;;8.07;;
74995;SDS011;63545;51.690;5.202;2024-03-17T01:21:35;13.93;;;7.72;;
74995;SDS011;63545;51.690;5.202;2024-03-17T01:24:00;13.97;;;8.03;;
74995;SDS011;63545;51.690;5.202;2024-03-17T01:26:26;13.17;;;7.47;;
74995;SDS011;63545;51.690;5.202;2024-03-17T01:28:51;13.03;;;7.20;;
74995;SDS011;63545;51.690;5.202;2024-03-17T01:31:17;14.15;;;6.97;;
74995;SDS011;63545;51.690;5.202;2024-03-17T01:33:42;14.60;;;7.53;;
74995;SDS011;63545;51.690;5.202;2024-03-17T01:36:07;10.40;;;6.70;;
74995;SDS011;63545;51.690;5.202;2024-03-17T01:38:33;16.97;;;7.03;;
74995;SDS011;63545;51.690;5.202;2024-03-17T01:40:58;14.30;;;7.10;;
74995;SDS011;63545;51.690;5.202;2024-03-17T01:43:24;13.13;;;7.27;;
74995;SDS011;63545;51.690;5.202;2024-03-17T01:45:49;14.53;;;7.67;;
74995;SDS011;63545;51.690;5.202;2024-03-17T01:48:15;15.45;;;7.13;;
74995;SDS011;63545;51.690;5.202;2024-03-17T01:50:44;12.63;;;7.37;;
74995;SDS011;63545;51.690;5.202;2024-03-17T01:53:09;14.23;;;7.50;;
74995;SDS011;63545;51.690;5.202;2024-03-17T01:55:37;13.73;;;7.77;;
74995;SDS011;63545;51.690;5.202;2024-03-17T01:58:03;15.63;;;7.90;;
74995;SDS011;63545;51.690;5.202;2024-03-17T02:00:32;14.45;;;7.57;;
74995;SDS011;63545;51.690;5.202;2024-03-17T02:02:59;15.20;;;7.05;;
74995;SDS011;63545;51.690;5.202;2024-03-17T02:05:24;13.43;;;7.80;;
74995;SDS011;63545;51.690;5.202;2024-03-17T02:07:50;11.98;;;6.80;;
74995;SDS011;63545;51.690;5.202;2024-03-17T02:10:15;13.80;;;6.67;;
74995;SDS011;63545;51.690;5.202;2024-03-17T02:12:40;11.73;;;6.93;;
74995;SDS011;63545;51.690;5.202;2024-03-17T02:15:06;17.60;;;7.10;;
74995;SDS011;63545;51.690;5.202;2024-03-17T02:17:32;13.15;;;7.30;;
74995;SDS011;63545;51.690;5.202;2024-03-17T02:19:58;13.70;;;6.97;;
74995;SDS011;63545;51.690;5.202;2024-03-17T02:22:25;14.20;;;7.50;;
74995;SDS011;63545;51.690;5.202;2024-03-17T02:24:50;15.07;;;6.97;;
74995;SDS011;63545;51.690;5.202;2024-03-17T02:27:16;16.67;;;7.80;;
74995;SDS011;63545;51.690;5.202;2024-03-17T02:29:41;14.35;;;7.00;;
74995;SDS011;63545;51.690;5.202;2024-03-17T02:32:07;16.00;;;7.23;;
74995;SDS011;63545;51.690;5.202;2024-03-17T02:34:35;12.53;;;7.00;;
74995;SDS011;63545;51.690;5.202;2024-03-17T02:37:02;11.48;;;6.95;;
74995;SDS011;63545;51.690;5.202;2024-03-17T02:39:28;17.27;;;7.40;;
74995;SDS011;63545;51.690;5.202;2024-03-17T02:42:07;15.52;;;7.43;;
74995;SDS011;63545;51.690;5.202;2024-03-17T02:44:34;14.10;;;7.40;;
74995;SDS011;63545;51.690;5.202;2024-03-17T02:47:00;16.73;;;7.75;;
74995;SDS011;63545;51.690;5.202;2024-03-17T02:49:27;15.00;;;8.27;;
74995;SDS011;63545;51.690;5.202;2024-03-17T02:51:56;14.95;;;7.10;;
74995;SDS011;63545;51.690;5.202;2024-03-17T02:54:21;16.55;;;7.70;;
74995;SDS011;63545;51.690;5.202;2024-03-17T02:56:48;18.67;;;8.17;;
74995;SDS011;63545;51.690;5.202;2024-03-17T02:59:13;13.85;;;7.60;;
74995;SDS011;63545;51.690;5.202;2024-03-17T03:01:39;16.00;;;7.77;;
74995;SDS011;63545;51.690;5.202;2024-03-17T03:04:05;15.77;;;8.07;;
74995;SDS011;63545;51.690;5.202;2024-03-17T03:06:31;14.17;;;7.67;;
74995;SDS011;63545;51.690;5.202;2024-03-17T03:08:57;13.40;;;7.45;;
74995;SDS011;63545;51.690;5.202;2024-03-17T03:11:23;16.50;;;7.93;;
74995;SDS011;63545;51.690;5.202;2024-03-17T03:13:48;13.13;;;7.43;;
74995;SDS011;63545;51.690;5.202;2024-03-17T03:16:14;15.27;;;8.23;;
74995;SDS011;63545;51.690;5.202;2024-03-17T03:18:39;14.45;;;8.07;;
74995;SDS011;63545;51.690;5.202;2024-03-17T03:21:05;14.85;;;8.13;;
74995;SDS011;63545;51.690;5.202;2024-03-17T03:23:31;15.80;;;8.00;;
74995;SDS011;63545;51.690;5.202;2024-03-17T03:26:00;17.48;;;8.93;;
74995;SDS011;63545;51.690;5.202;2024-03-17T03:28:30;15.80;;;8.10;;
74995;SDS011;63545;51.690;5.202;2024-03-17T03:30:58;16.70;;;8.48;;
74995;SDS011;63545;51.690;5.202;2024-03-17T03:33:23;13.80;;;7.73;;
74995;SDS011;63545;51.690;5.202;2024-03-17T03:35:49;16.23;;;7.90;;
74995;SDS011;63545;51.690;5.202;2024-03-17T03:38:16;13.05;;;7.97;;
74995;SDS011;63545;51.690;5.202;2024-03-17T03:40:42;17.33;;;8.52;;
74995;SDS011;63545;51.690;5.202;2024-03-17T03:43:08;16.07;;;8.37;;
74995;SDS011;63545;51.690;5.202;2024-03-17T03:45:34;12.75;;;7.93;;
74995;SDS011;63545;51.690;5.202;2024-03-17T03:48:00;15.70;;;8.50;;
74995;SDS011;63545;51.690;5.202;2024-03-17T03:50:26;14.97;;;8.80;;
74995;SDS011;63545;51.690;5.202;2024-03-17T03:52:51;12.87;;;8.13;;
74995;SDS011;63545;51.690;5.202;2024-03-17T03:55:16;15.57;;;8.27;;
74995;SDS011;63545;51.690;5.202;2024-03-17T03:57:42;16.80;;;8.82;;
74995;SDS011;63545;51.690;5.202;2024-03-17T04:00:11;16.37;;;8.43;;
74995;SDS011;63545;51.690;5.202;2024-03-17T04:02:42;19.33;;;9.18;;
74995;SDS011;63545;51.690;5.202;2024-03-17T04:05:08;17.00;;;8.90;;
74995;SDS011;63545;51.690;5.202;2024-03-17T04:07:34;16.92;;;8.68;;
74995;SDS011;63545;51.690;5.202;2024-03-17T04:10:01;14.27;;;8.85;;
74995;SDS011;63545;51.690;5.202;2024-03-17T04:12:27;15.23;;;8.73;;
74995;SDS011;63545;51.690;5.202;2024-03-17T04:14:53;19.30;;;8.80;;
74995;SDS011;63545;51.690;5.202;2024-03-17T04:17:21;17.13;;;9.40;;
74995;SDS011;63545;51.690;5.202;2024-03-17T04:19:47;15.13;;;8.57;;
74995;SDS011;63545;51.690;5.202;2024-03-17T04:22:14;16.55;;;9.43;;
74995;SDS011;63545;51.690;5.202;2024-03-17T04:24:39;15.98;;;9.10;;
74995;SDS011;63545;51.690;5.202;2024-03-17T04:27:05;16.40;;;9.43;;
74995;SDS011;63545;51.690;5.202;2024-03-17T04:29:30;15.73;;;9.43;;
74995;SDS011;63545;51.690;5.202;2024-03-17T04:31:55;14.80;;;9.17;;
74995;SDS011;63545;51.690;5.202;2024-03-17T04:34:21;20.70;;;9.90;;
74995;SDS011;63545;51.690;5.202;2024-03-17T04:36:46;18.87;;;9.30;;
74995;SDS011;63545;51.690;5.202;2024-03-17T04:39:12;19.57;;;9.57;;
74995;SDS011;63545;51.690;5.202;2024-03-17T04:41:37;17.33;;;9.52;;
74995;SDS011;63545;51.690;5.202;2024-03-17T04:44:05;17.33;;;9.80;;
74995;SDS011;63545;51.690;5.202;2024-03-17T04:46:31;17.93;;;9.70;;
74995;SDS011;63545;51.690;5.202;2024-03-17T04:48:57;16.98;;;9.63;;
74995;SDS011;63545;51.690;5.202;2024-03-17T04:51:22;18.00;;;9.80;;
74995;SDS011;63545;51.690;5.202;2024-03-17T04:53:47;21.83;;;10.17;;
74995;SDS011;63545;51.690;5.202;2024-03-17T04:56:13;16.37;;;9.63;;
74995;SDS011;63545;51.690;5.202;2024-03-17T04:58:38;17.43;;;10.53;;
74995;SDS011;63545;51.690;5.202;2024-03-17T05:01:04;17.73;;;9.57;;
74995;SDS011;63545;51.690;5.202;2024-03-17T05:03:33;17.25;;;10.13;;
74995;SDS011;63545;51.690;5.202;2024-03-17T05:05:59;17.65;;;10.15;;
74995;SDS011;63545;51.690;5.202;2024-03-17T05:08:29;17.48;;;10.25;;
74995;SDS011;63545;51.690;5.202;2024-03-17T05:10:59;17.63;;;10.00;;
74995;SDS011;63545;51.690;5.202;2024-03-17T05:13:27;17.50;;;9.73;;
74995;SDS011;63545;51.690;5.202;2024-03-17T05:15:53;19.48;;;10.20;;
74995;SDS011;63545;51.690;5.202;2024-03-17T05:18:19;19.70;;;10.35;;
74995;SDS011;63545;51.690;5.202;2024-03-17T05:20:45;16.63;;;9.87;;
74995;SDS011;63545;51.690;5.202;2024-03-17T05:23:12;16.75;;;9.73;;
74995;SDS011;63545;51.690;5.202;2024-03-17T05:25:38;17.50;;;9.40;;
74995;SDS011;63545;51.690;5.202;2024-03-17T05:28:04;17.33;;;10.33;;
74995;SDS011;63545;51.690;5.202;2024-03-17T05:30:29;20.70;;;10.53;;
74995;SDS011;63545;51.690;5.202;2024-03-17T05:32:55;17.92;;;10.27;;
74995;SDS011;63545;51.690;5.202;2024-03-17T05:35:21;18.60;;;10.83;;
74995;SDS011;63545;51.690;5.202;2024-03-17T05:37:46;21.00;;;11.10;;
74995;SDS011;63545;51.690;5.202;2024-03-17T05:40:11;20.33;;;11.93;;
74995;SDS011;63545;51.690;5.202;2024-03-17T05:42:37;21.50;;;11.07;;
74995;SDS011;63545;51.690;5.202;2024-03-17T05:45:03;16.95;;;10.73;;
74995;SDS011;63545;51.690;5.202;2024-03-17T05:47:28;20.57;;;11.90;;
74995;SDS011;63545;51.690;5.202;2024-03-17T05:49:54;21.30;;;11.77;;
74995;SDS011;63545;51.690;5.202;2024-03-17T05:52:20;23.50;;;11.45;;
74995;SDS011;63545;51.690;5.202;2024-03-17T05:54:46;23.80;;;12.03;;
74995;SDS011;63545;51.690;5.202;2024-03-17T05:57:12;19.37;;;11.60;;
74995;SDS011;63545;51.690;5.202;2024-03-17T05:59:38;21.48;;;11.35;;
74995;SDS011;63545;51.690;5.202;2024-03-17T06:02:04;22.27;;;11.68;;
74995;SDS011;63545;51.690;5.202;2024-03-17T06:04:29;17.53;;;11.17;;
74995;SDS011;63545;51.690;5.202;2024-03-17T06:06:55;21.97;;;11.83;;
74995;SDS011;63545;51.690;5.202;2024-03-17T06:09:20;18.90;;;11.30;;
74995;SDS011;63545;51.690;5.202;2024-03-17T06:11:46;19.52;;;11.85;;
74995;SDS011;63545;51.690;5.202;2024-03-17T06:14:11;20.90;;;12.20;;
74995;SDS011;63545;51.690;5.202;2024-03-17T06:16:38;18.77;;;11.73;;
74995;SDS011;63545;51.690;5.202;2024-03-17T06:19:03;18.93;;;11.33;;
74995;SDS011;63545;51.690;5.202;2024-03-17T06:21:29;21.40;;;11.20;;
74995;SDS011;63545;51.690;5.202;2024-03-17T06:23:54;19.97;;;11.27;;
74995;SDS011;63545;51.690;5.202;2024-03-17T06:26:19;16.63;;;10.57;;
74995;SDS011;63545;51.690;5.202;2024-03-17T06:28:45;20.67;;;11.83;;
74995;SDS011;63545;51.690;5.202;2024-03-17T06:31:11;20.05;;;11.25;;
74995;SDS011;63545;51.690;5.202;2024-03-17T06:33:36;20.93;;;11.13;;
74995;SDS011;63545;51.690;5.202;2024-03-17T06:36:02;17.67;;;11.13;;
74995;SDS011;63545;51.690;5.202;2024-03-17T06:38:32;18.27;;;10.50;;
74995;SDS011;63545;51.690;5.202;2024-03-17T06:40:57;19.38;;;10.65;;
74995;SDS011;63545;51.690;5.202;2024-03-17T06:43:23;17.07;;;10.00;;
74995;SDS011;63545;51.690;5.202;2024-03-17T06:45:57;17.77;;;10.37;;
74995;SDS011;63545;51.690;5.202;2024-03-17T06:48:26;20.55;;;11.07;;
74995;SDS011;63545;51.690;5.202;2024-03-17T06:50:53;17.57;;;10.20;;
74995;SDS011;63545;51.690;5.202;2024-03-17T06:53:21;17.83;;;10.15;;
74995;SDS011;63545;51.690;5.202;2024-03-17T06:55:57;20.05;;;9.15;;
74995;SDS011;63545;51.690;5.202;2024-03-17T06:58:23;16.42;;;9.60;;
74995;SDS011;63545;51.690;5.202;2024-03-17T07:00:58;16.77;;;9.45;;
74995;SDS011;63545;51.690;5.202;2024-03-17T07:03:28;15.40;;;9.30;;
74995;SDS011;63545;51.690;5.202;2024-03-17T07:05:55;16.90;;;9.13;;
74995;SDS011;63545;51.690;5.202;2024-03-17T07:08:21;17.75;;;9.70;;
74995;SDS011;63545;51.690;5.202;2024-03-17T07:10:56;14.32;;;8.73;;
74995;SDS011;63545;51.690;5.202;2024-03-17T07:13:29;16.58;;;8.82;;
74995;SDS011;63545;51.690;5.202;2024-03-17T07:15:56;16.00;;;8.87;;
74995;SDS011;63545;51.690;5.202;2024-03-17T07:18:21;11.77;;;8.80;;
74995;SDS011;63545;51.690;5.202;2024-03-17T07:20:46;15.87;;;8.90;;
74995;SDS011;63545;51.690;5.202;2024-03-17T07:23:13;13.25;;;9.00;;
74995;SDS011;63545;51.690;5.202;2024-03-17T07:25:41;15.98;;;8.88;;
74995;SDS011;63545;51.690;5.202;2024-03-17T07:28:08;14.43;;;8.80;;
74995;SDS011;63545;51.690;5.202;2024-03-17T07:30:34;13.82;;;9.20;;
74995;SDS011;63545;51.690;5.202;2024-03-17T07:33:00;13.77;;;8.23;;
74995;SDS011;63545;51.690;5.202;2024-03-17T07:35:25;16.93;;;8.83;;
74995;SDS011;63545;51.690;5.202;2024-03-17T07:37:51;12.20;;;8.53;;
74995;SDS011;63545;51.690;5.202;2024-03-17T07:40:16;17.40;;;8.33;;
74995;SDS011;63545;51.690;5.202;2024-03-17T07:42:41;13.13;;;7.90;;
74995;SDS011;63545;51.690;5.202;2024-03-17T07:45:07;15.33;;;8.37;;
74995;SDS011;63545;51.690;5.202;2024-03-17T07:47:33;13.97;;;8.03;;
74995;SDS011;63545;51.690;5.202;2024-03-17T07:50:04;13.38;;;7.93;;
74995;SDS011;63545;51.690;5.202;2024-03-17T07:52:30;17.65;;;8.55;;
74995;SDS011;63545;51.690;5.202;2024-03-17T07:54:58;16.48;;;7.47;;
74995;SDS011;63545;51.690;5.202;2024-03-17T07:57:24;11.00;;;7.40;;
74995;SDS011;63545;51.690;5.202;2024-03-17T07:59:50;12.37;;;7.73;;
74995;SDS011;63545;51.690;5.202;2024-03-17T08:02:16;12.70;;;7.40;;
74995;SDS011;63545;51.690;5.202;2024-03-17T08:04:41;10.57;;;7.28;;
74995;SDS011;63545;51.690;5.202;2024-03-17T08:07:07;10.53;;;7.20;;
74995;SDS011;63545;51.690;5.202;2024-03-17T08:09:33;15.63;;;7.50;;
74995;SDS011;63545;51.690;5.202;2024-03-17T08:11:58;10.77;;;7.03;;
74995;SDS011;63545;51.690;5.202;2024-03-17T08:14:23;10.43;;;6.87;;
74995;SDS011;63545;51.690;5.202;2024-03-17T08:16:49;12.23;;;6.93;;
74995;SDS011;63545;51.690;5.202;2024-03-17T08:19:14;13.53;;;7.23;;
74995;SDS011;63545;51.690;5.202;2024-03-17T08:21:39;10.37;;;7.13;;
74995;SDS011;63545;51.690;5.202;2024-03-17T08:24:05;11.70;;;7.13;;
74995;SDS011;63545;51.690;5.202;2024-03-17T08:26:30;11.63;;;7.43;;
74995;SDS011;63545;51.690;5.202;2024-03-17T08:28:55;11.48;;;7.85;;
74995;SDS011;63545;51.690;5.202;2024-03-17T08:31:22;13.33;;;7.57;;
74995;SDS011;63545;51.690;5.202;2024-03-17T08:33:47;11.33;;;6.50;;
74995;SDS011;63545;51.690;5.202;2024-03-17T08:36:12;11.05;;;6.72;;
74995;SDS011;63545;51.690;5.202;2024-03-17T08:38:41;10.30;;;6.97;;
74995;SDS011;63545;51.690;5.202;2024-03-17T08:41:07;12.53;;;7.27;;
74995;SDS011;63545;51.690;5.202;2024-03-17T08:43:34;13.30;;;6.80;;
74995;SDS011;63545;51.690;5.202;2024-03-17T08:46:01;12.38;;;7.25;;
74995;SDS011;63545;51.690;5.202;2024-03-17T08:48:29;10.48;;;6.57;;
74995;SDS011;63545;51.690;5.202;2024-03-17T08:50:55;10.00;;;6.90;;
74995;SDS011;63545;51.690;5.202;2024-03-17T08:53:21;12.33;;;6.93;;
74995;SDS011;63545;51.690;5.202;2024-03-17T08:55:47;9.82;;;6.80;;
74995;SDS011;63545;51.690;5.202;2024-03-17T08:58:12;10.67;;;7.37;;
74995;SDS011;63545;51.690;5.202;2024-03-17T09:00:37;12.87;;;6.93;;
74995;SDS011;63545;51.690;5.202;2024-03-17T09:03:03;10.27;;;6.73;;
74995;SDS011;63545;51.690;5.202;2024-03-17T09:05:29;11.05;;;6.28;;
74995;SDS011;63545;51.690;5.202;2024-03-17T09:07:54;13.83;;;6.70;;
74995;SDS011;63545;51.690;5.202;2024-03-17T09:10:20;11.50;;;6.65;;
74995;SDS011;63545;51.690;5.202;2024-03-17T09:12:46;8.93;;;6.57;;
74995;SDS011;63545;51.690;5.202;2024-03-17T09:15:12;10.35;;;6.60;;
74995;SDS011;63545;51.690;5.202;2024-03-17T09:17:38;11.75;;;6.45;;
74995;SDS011;63545;51.690;5.202;2024-03-17T09:20:04;11.00;;;6.80;;
74995;SDS011;63545;51.690;5.202;2024-03-17T09:22:30;12.13;;;6.40;;
74995;SDS011;63545;51.690;5.202;2024-03-17T09:24:56;8.87;;;6.20;;
74995;SDS011;63545;51.690;5.202;2024-03-17T09:27:21;10.57;;;6.27;;
74995;SDS011;63545;51.690;5.202;2024-03-17T09:29:47;12.43;;;6.80;;
74995;SDS011;63545;51.690;5.202;2024-03-17T09:32:13;10.00;;;6.70;;
74995;SDS011;63545;51.690;5.202;2024-03-17T09:34:43;10.85;;;6.28;;
74995;SDS011;63545;51.690;5.202;2024-03-17T09:37:13;10.45;;;6.50;;
74995;SDS011;63545;51.690;5.202;2024-03-17T09:39:38;9.43;;;6.40;;
74995;SDS011;63545;51.690;5.202;2024-03-17T09:42:04;8.93;;;6.30;;
74995;SDS011;63545;51.690;5.202;2024-03-17T09:44:31;9.68;;;5.95;;
74995;SDS011;63545;51.690;5.202;2024-03-17T09:46:58;10.55;;;6.32;;
74995;SDS011;63545;51.690;5.202;2024-03-17T09:49:24;9.18;;;5.88;;
74995;SDS011;63545;51.690;5.202;2024-03-17T09:51:50;9.13;;;5.87;;
74995;SDS011;63545;51.690;5.202;2024-03-17T09:54:17;8.77;;;6.25;;
74995;SDS011;63545;51.690;5.202;2024-03-17T09:56:47;9.73;;;6.20;;
74995;SDS011;63545;51.690;5.202;2024-03-17T09:59:12;11.00;;;6.20;;
74995;SDS011;63545;51.690;5.202;2024-03-17T10:01:38;8.77;;;6.30;;
74995;SDS011;63545;51.690;5.202;2024-03-17T10:04:03;10.40;;;6.23;;
74995;SDS011;63545;51.690;5.202;2024-03-17T10:06:29;10.20;;;6.50;;
74995;SDS011;63545;51.690;5.202;2024-03-17T10:08:56;10.82;;;5.88;;
74995;SDS011;63545;51.690;5.202;2024-03-17T10:11:32;10.23;;;6.43;;
74995;SDS011;63545;51.690;5.202;2024-03-17T10:14:02;13.13;;;6.03;;
74995;SDS011;63545;51.690;5.202;2024-03-17T10:16:29;10.55;;;6.45;;
74995;SDS011;63545;51.690;5.202;2024-03-17T10:19:12;12.97;;;6.00;;
74995;SDS011;63545;51.690;5.202;2024-03-17T10:21:42;9.45;;;5.63;;
74995;SDS011;63545;51.690;5.202;2024-03-17T10:26:37;11.38;;;5.15;;
74995;SDS011;63545;51.690;5.202;2024-03-17T10:29:04;9.55;;;5.03;;
74995;SDS011;63545;51.690;5.202;2024-03-17T10:31:30;8.50;;;5.13;;
74995;SDS011;63545;51.690;5.202;2024-03-17T10:34:02;10.15;;;5.35;;
74995;SDS011;63545;51.690;5.202;2024-03-17T10:36:28;8.77;;;5.47;;
74995;SDS011;63545;51.690;5.202;2024-03-17T10:38:53;9.80;;;5.10;;
74995;SDS011;63545;51.690;5.202;2024-03-17T10:41:20;10.95;;;5.28;;
74995;SDS011;63545;51.690;5.202;2024-03-17T10:43:47;9.43;;;5.00;;
74995;SDS011;63545;51.690;5.202;2024-03-17T10:46:12;8.83;;;4.93;;
74995;SDS011;63545;51.690;5.202;2024-03-17T10:48:40;7.75;;;4.70;;
74995;SDS011;63545;51.690;5.202;2024-03-17T10:51:06;8.40;;;5.10;;
74995;SDS011;63545;51.690;5.202;2024-03-17T10:53:36;8.57;;;5.23;;
74995;SDS011;63545;51.690;5.202;2024-03-17T10:56:05;7.82;;;5.30;;
74995;SDS011;63545;51.690;5.202;2024-03-17T10:58:38;9.18;;;5.35;;
74995;SDS011;63545;51.690;5.202;2024-03-17T11:01:06;6.67;;;4.77;;
74995;SDS011;63545;51.690;5.202;2024-03-17T11:03:32;8.23;;;4.85;;
74995;SDS011;63545;51.690;5.202;2024-03-17T11:05:58;9.25;;;4.97;;
74995;SDS011;63545;51.690;5.202;2024-03-17T11:08:25;10.48;;;5.55;;
74995;SDS011;63545;51.690;5.202;2024-03-17T11:10:52;10.80;;;5.13;;
74995;SDS011;63545;51.690;5.202;2024-03-17T11:13:23;9.23;;;5.33;;
74995;SDS011;63545;51.690;5.202;2024-03-17T11:15:52;9.82;;;5.20;;
74995;SDS011;63545;51.690;5.202;2024-03-17T11:20:58;8.73;;;5.13;;
74995;SDS011;63545;51.690;5.202;2024-03-17T11:23:27;7.97;;;4.85;;
74995;SDS011;63545;51.690;5.202;2024-03-17T11:25:57;9.02;;;5.13;;
74995;SDS011;63545;51.690;5.202;2024-03-17T11:31:27;10.57;;;5.70;;
74995;SDS011;63545;51.690;5.202;2024-03-17T11:34:03;7.65;;;5.15;;
74995;SDS011;63545;51.690;5.202;2024-03-17T11:36:30;9.43;;;5.00;;
74995;SDS011;63545;51.690;5.202;2024-03-17T11:38:59;9.57;;;4.85;;
74995;SDS011;63545;51.690;5.202;2024-03-17T11:49:27;11.75;;;5.45;;
74995;SDS011;63545;51.690;5.202;2024-03-17T11:52:00;9.05;;;5.28;;
74995;SDS011;63545;51.690;5.202;2024-03-17T11:54:27;10.40;;;5.27;;
74995;SDS011;63545;51.690;5.202;2024-03-17T11:57:04;13.70;;;4.88;;
74995;SDS011;63545;51.690;5.202;2024-03-17T11:59:34;8.93;;;5.10;;
74995;SDS011;63545;51.690;5.202;2024-03-17T12:01:59;8.67;;;4.80;;
74995;SDS011;63545;51.690;5.202;2024-03-17T12:04:26;7.57;;;4.72;;
74995;SDS011;63545;51.690;5.202;2024-03-17T12:06:52;7.77;;;4.80;;
74995;SDS011;63545;51.690;5.202;2024-03-17T12:09:24;7.25;;;4.88;;
74995;SDS011;63545;51.690;5.202;2024-03-17T12:11:59;7.68;;;5.13;;
74995;SDS011;63545;51.690;5.202;2024-03-17T12:14:26;8.38;;;4.97;;
74995;SDS011;63545;51.690;5.202;2024-03-17T12:16:52;10.47;;;4.87;;
74995;SDS011;63545;51.690;5.202;2024-03-17T12:19:19;8.15;;;4.80;;
74995;SDS011;63545;51.690;5.202;2024-03-17T12:22:06;8.80;;;4.60;;
74995;SDS011;63545;51.690;5.202;2024-03-17T12:24:31;8.18;;;4.88;;
74995;SDS011;63545;51.690;5.202;2024-03-17T12:26:58;6.63;;;4.57;;
74995;SDS011;63545;51.690;5.202;2024-03-17T12:31:52;9.75;;;5.32;;
74995;SDS011;63545;51.690;5.202;2024-03-17T12:34:19;10.88;;;5.07;;
74995;SDS011;63545;51.690;5.202;2024-03-17T12:36:45;11.13;;;5.05;;
74995;SDS011;63545;51.690;5.202;2024-03-17T12:39:33;9.10;;;5.10;;
74995;SDS011;63545;51.690;5.202;2024-03-17T12:42:07;9.82;;;4.85;;
74995;SDS011;63545;51.690;5.202;2024-03-17T12:44:35;11.05;;;5.30;;
74995;SDS011;63545;51.690;5.202;2024-03-17T12:47:02;8.50;;;5.03;;
74995;SDS011;63545;51.690;5.202;2024-03-17T12:49:30;6.70;;;4.95;;
74995;SDS011;63545;51.690;5.202;2024-03-17T12:51:56;9.97;;;4.93;;
74995;SDS011;63545;51.690;5.202;2024-03-17T12:54:23;9.15;;;5.00;;
74995;SDS011;63545;51.690;5.202;2024-03-17T12:56:50;11.50;;;4.80;;
74995;SDS011;63545;51.690;5.202;2024-03-17T12:59:38;9.82;;;4.53;;
74995;SDS011;63545;51.690;5.202;2024-03-17T13:02:22;8.82;;;5.40;;
74995;SDS011;63545;51.690;5.202;2024-03-17T13:07:34;10.88;;;5.63;;
74995;SDS011;63545;51.690;5.202;2024-03-17T13:10:00;10.63;;;5.77;;
74995;SDS011;63545;51.690;5.202;2024-03-17T13:12:25;8.07;;;5.33;;
74995;SDS011;63545;51.690;5.202;2024-03-17T13:14:52;9.27;;;5.10;;
74995;SDS011;63545;51.690;5.202;2024-03-17T13:17:17;11.35;;;5.70;;
74995;SDS011;63545;51.690;5.202;2024-03-17T13:19:46;10.87;;;5.97;;
74995;SDS011;63545;51.690;5.202;2024-03-17T13:22:12;9.20;;;5.20;;
74995;SDS011;63545;51.690;5.202;2024-03-17T13:24:38;10.65;;;5.00;;
74995;SDS011;63545;51.690;5.202;2024-03-17T13:27:04;8.27;;;4.97;;
74995;SDS011;63545;51.690;5.202;2024-03-17T13:29:33;8.65;;;5.15;;
74995;SDS011;63545;51.690;5.202;2024-03-17T13:32:01;7.95;;;5.15;;
74995;SDS011;63545;51.690;5.202;2024-03-17T13:34:27;8.02;;;4.72;;
74995;SDS011;63545;51.690;5.202;2024-03-17T13:36:53;6.67;;;4.70;;
74995;SDS011;63545;51.690;5.202;2024-03-17T13:39:19;8.68;;;5.05;;
74995;SDS011;63545;51.690;5.202;2024-03-17T13:41:45;8.27;;;4.80;;
74995;SDS011;63545;51.690;5.202;2024-03-17T13:44:12;9.65;;;4.63;;
74995;SDS011;63545;51.690;5.202;2024-03-17T13:46:37;6.85;;;4.78;;
74995;SDS011;63545;51.690;5.202;2024-03-17T13:49:08;9.33;;;5.40;;
74995;SDS011;63545;51.690;5.202;2024-03-17T13:51:34;8.10;;;4.97;;
74995;SDS011;63545;51.690;5.202;2024-03-17T13:53:59;9.85;;;5.45;;
74995;SDS011;63545;51.690;5.202;2024-03-17T13:56:25;7.93;;;4.70;;
74995;SDS011;63545;51.690;5.202;2024-03-17T13:58:51;8.35;;;4.55;;
74995;SDS011;63545;51.690;5.202;2024-03-17T14:01:16;9.20;;;4.10;;
74995;SDS011;63545;51.690;5.202;2024-03-17T14:03:42;6.97;;;4.37;;
74995;SDS011;63545;51.690;5.202;2024-03-17T14:06:08;7.83;;;4.00;;
74995;SDS011;63545;51.690;5.202;2024-03-17T14:08:34;10.13;;;3.40;;
74995;SDS011;63545;51.690;5.202;2024-03-17T14:11:00;7.75;;;4.13;;
74995;SDS011;63545;51.690;5.202;2024-03-17T14:13:26;7.07;;;3.65;;
74995;SDS011;63545;51.690;5.202;2024-03-17T14:15:51;6.63;;;3.93;;
74995;SDS011;63545;51.690;5.202;2024-03-17T14:18:20;8.50;;;3.87;;
74995;SDS011;63545;51.690;5.202;2024-03-17T14:20:46;7.38;;;3.85;;
74995;SDS011;63545;51.690;5.202;2024-03-17T14:23:11;7.33;;;4.10;;
74995;SDS011;63545;51.690;5.202;2024-03-17T14:25:37;7.20;;;3.78;;
74995;SDS011;63545;51.690;5.202;2024-03-17T14:28:04;8.00;;;4.55;;
74995;SDS011;63545;51.690;5.202;2024-03-17T14:30:30;8.13;;;3.70;;
74995;SDS011;63545;51.690;5.202;2024-03-17T14:32:56;10.65;;;3.90;;
74995;SDS011;63545;51.690;5.202;2024-03-17T14:35:21;7.82;;;4.07;;
74995;SDS011;63545;51.690;5.202;2024-03-17T14:37:47;6.73;;;3.97;;
74995;SDS011;63545;51.690;5.202;2024-03-17T14:40:14;7.15;;;3.85;;
74995;SDS011;63545;51.690;5.202;2024-03-17T14:42:53;6.40;;;3.72;;
74995;SDS011;63545;51.690;5.202;2024-03-17T14:45:20;8.43;;;3.90;;
74995;SDS011;63545;51.690;5.202;2024-03-17T14:47:48;6.30;;;3.75;;
74995;SDS011;63545;51.690;5.202;2024-03-17T14:50:14;7.10;;;3.80;;
74995;SDS011;63545;51.690;5.202;2024-03-17T14:52:41;6.00;;;4.00;;
74995;SDS011;63545;51.690;5.202;2024-03-17T14:55:07;5.50;;;3.60;;